Terminal Aerodrome Forecast
Issued by NWS

Home | Current Version | Previous Version | Text Only | Print | Product List | Glossary On
Versions: 1 2 3 4 5 6 7 8 9 10 11 12 13 14 15 16 17 18 19 20 21 22 23 24 25 26 27 28 29 30 31 32 33 34 35 36
000
FTUS41 KBOX 221729
TAFBAF
TAF
KBAF 221729Z 2218/2318 03006KT P6SM SCT015 OVC040
     FM230300 VRB03KT P6SM OVC025
     FM230900 02004KT P6SM BKN008
     FM231300 04005KT P6SM BKN015
     FM231500 05006KT P6SM BKN035=

USA.gov is the U.S. government's official web portal to all federal, state and local government web resources and services.